sensor_id;sensor_type;location;lat;lon;timestamp;pressure;altitude;pressure_sealevel;temperature;humidity
2178;BME280;1095;50.992;6.798;2023-05-23T00:00:56;100999.53;;;15.01;100.00
2178;BME280;1095;50.992;6.798;2023-05-23T00:03:23;100993.78;;;14.97;100.00
2178;BME280;1095;50.992;6.798;2023-05-23T00:05:50;100999.59;;;14.92;100.00
2178;BME280;1095;50.992;6.798;2023-05-23T00:08:17;100997.31;;;14.89;100.00
2178;BME280;1095;50.992;6.798;2023-05-23T00:10:44;100997.47;;;14.88;100.00
2178;BME280;1095;50.992;6.798;2023-05-23T00:13:12;101000.63;;;14.83;100.00
2178;BME280;1095;50.992;6.798;2023-05-23T00:15:39;100997.22;;;14.75;100.00
2178;BME280;1095;50.992;6.798;2023-05-23T00:18:07;101002.53;;;14.67;100.00
2178;BME280;1095;50.992;6.798;2023-05-23T00:20:35;100996.00;;;14.63;100.00
2178;BME280;1095;50.992;6.798;2023-05-23T00:23:03;101003.91;;;14.63;100.00
2178;BME280;1095;50.992;6.798;2023-05-23T00:25:29;101013.31;;;14.57;100.00
2178;BME280;1095;50.992;6.798;2023-05-23T00:27:58;101010.97;;;14.62;100.00
2178;BME280;1095;50.992;6.798;2023-05-23T00:30:27;101012.47;;;14.65;100.00
2178;BME280;1095;50.992;6.798;2023-05-23T00:32:54;101008.88;;;14.57;100.00
2178;BME280;1095;50.992;6.798;2023-05-23T00:35:21;101017.72;;;14.65;100.00
2178;BME280;1095;50.992;6.798;2023-05-23T00:37:48;101020.47;;;14.71;100.00
2178;BME280;1095;50.992;6.798;2023-05-23T00:40:16;101023.88;;;14.80;100.00
2178;BME280;1095;50.992;6.798;2023-05-23T00:42:43;101013.47;;;14.86;100.00
2178;BME280;1095;50.992;6.798;2023-05-23T00:45:10;101012.75;;;14.92;100.00
2178;BME280;1095;50.992;6.798;2023-05-23T00:47:39;101010.38;;;15.06;100.00
2178;BME280;1095;50.992;6.798;2023-05-23T00:50:07;101013.00;;;15.06;100.00
2178;BME280;1095;50.992;6.798;2023-05-23T00:52:36;101014.94;;;15.12;100.00
2178;BME280;1095;50.992;6.798;2023-05-23T00:55:03;101014.75;;;15.13;100.00
2178;BME280;1095;50.992;6.798;2023-05-23T00:57:31;101018.38;;;15.12;100.00
2178;BME280;1095;50.992;6.798;2023-05-23T00:59:59;101017.56;;;15.12;100.00
2178;BME280;1095;50.992;6.798;2023-05-23T01:02:30;101021.78;;;15.21;100.00
2178;BME280;1095;50.992;6.798;2023-05-23T01:05:02;101022.75;;;15.20;99.89
2178;BME280;1095;50.992;6.798;2023-05-23T01:07:29;101014.03;;;15.19;99.89
2178;BME280;1095;50.992;6.798;2023-05-23T01:09:55;101014.84;;;15.20;99.86
2178;BME280;1095;50.992;6.798;2023-05-23T01:12:33;101023.34;;;15.30;99.71
2178;BME280;1095;50.992;6.798;2023-05-23T01:15:05;101032.25;;;15.29;100.00
2178;BME280;1095;50.992;6.798;2023-05-23T01:17:38;101028.63;;;15.30;100.00
2178;BME280;1095;50.992;6.798;2023-05-23T01:20:10;101036.19;;;15.33;100.00
2178;BME280;1095;50.992;6.798;2023-05-23T01:22:53;101035.66;;;15.38;100.00
2178;BME280;1095;50.992;6.798;2023-05-23T01:25:29;101036.66;;;15.37;100.00
2178;BME280;1095;50.992;6.798;2023-05-23T01:28:04;101031.84;;;15.40;100.00
2178;BME280;1095;50.992;6.798;2023-05-23T01:30:38;101030.03;;;15.41;99.88
2178;BME280;1095;50.992;6.798;2023-05-23T01:33:05;101038.75;;;15.41;99.39
2178;BME280;1095;50.992;6.798;2023-05-23T01:35:32;101025.28;;;15.36;98.01
2178;BME280;1095;50.992;6.798;2023-05-23T01:38:00;101029.91;;;15.34;96.78
2178;BME280;1095;50.992;6.798;2023-05-23T01:40:28;101032.53;;;15.34;95.99
2178;BME280;1095;50.992;6.798;2023-05-23T01:42:55;101034.78;;;15.22;94.87
2178;BME280;1095;50.992;6.798;2023-05-23T01:45:25;101027.03;;;15.21;94.12
2178;BME280;1095;50.992;6.798;2023-05-23T01:47:53;101026.69;;;15.24;93.62
2178;BME280;1095;50.992;6.798;2023-05-23T01:50:21;101037.41;;;15.22;93.11
2178;BME280;1095;50.992;6.798;2023-05-23T01:52:48;101035.94;;;15.20;92.67
2178;BME280;1095;50.992;6.798;2023-05-23T01:55:17;101037.25;;;15.24;92.47
2178;BME280;1095;50.992;6.798;2023-05-23T01:57:49;101035.13;;;15.19;92.24
2178;BME280;1095;50.992;6.798;2023-05-23T02:00:16;101030.56;;;15.13;92.35
2178;BME280;1095;50.992;6.798;2023-05-23T02:02:44;101038.94;;;15.17;92.26
2178;BME280;1095;50.992;6.798;2023-05-23T02:05:11;101028.38;;;15.17;92.22
2178;BME280;1095;50.992;6.798;2023-05-23T02:07:38;101042.38;;;15.17;92.14
2178;BME280;1095;50.992;6.798;2023-05-23T02:10:07;101044.84;;;15.19;92.25
2178;BME280;1095;50.992;6.798;2023-05-23T02:12:34;101040.88;;;15.23;92.20
2178;BME280;1095;50.992;6.798;2023-05-23T02:15:00;101043.22;;;15.18;92.47
2178;BME280;1095;50.992;6.798;2023-05-23T02:17:27;101048.47;;;15.18;92.93
2178;BME280;1095;50.992;6.798;2023-05-23T02:19:56;101052.63;;;15.12;93.23
2178;BME280;1095;50.992;6.798;2023-05-23T02:22:23;101046.38;;;15.13;93.33
2178;BME280;1095;50.992;6.798;2023-05-23T02:24:50;101043.13;;;15.11;93.54
2178;BME280;1095;50.992;6.798;2023-05-23T02:27:16;101046.03;;;15.16;93.46
2178;BME280;1095;50.992;6.798;2023-05-23T02:29:43;101044.50;;;15.22;93.28
2178;BME280;1095;50.992;6.798;2023-05-23T02:32:10;101048.81;;;15.15;93.50
2178;BME280;1095;50.992;6.798;2023-05-23T02:34:38;101057.22;;;15.18;93.52
2178;BME280;1095;50.992;6.798;2023-05-23T02:37:06;101053.28;;;15.14;93.86
2178;BME280;1095;50.992;6.798;2023-05-23T02:39:33;101063.19;;;15.12;94.05
2178;BME280;1095;50.992;6.798;2023-05-23T02:42:00;101058.94;;;15.11;94.35
2178;BME280;1095;50.992;6.798;2023-05-23T02:44:27;101066.03;;;15.11;94.42
2178;BME280;1095;50.992;6.798;2023-05-23T02:46:54;101072.28;;;15.10;94.66
2178;BME280;1095;50.992;6.798;2023-05-23T02:49:20;101067.47;;;15.13;94.78
2178;BME280;1095;50.992;6.798;2023-05-23T02:51:47;101060.19;;;15.15;94.84
2178;BME280;1095;50.992;6.798;2023-05-23T02:54:15;101062.00;;;15.15;94.92
2178;BME280;1095;50.992;6.798;2023-05-23T02:56:41;101066.53;;;15.06;95.34
2178;BME280;1095;50.992;6.798;2023-05-23T02:59:08;101061.75;;;15.10;95.30
2178;BME280;1095;50.992;6.798;2023-05-23T03:01:36;101062.91;;;15.07;95.37
2178;BME280;1095;50.992;6.798;2023-05-23T03:04:03;101066.25;;;15.01;95.44
2178;BME280;1095;50.992;6.798;2023-05-23T03:06:29;101068.06;;;15.01;95.72
2178;BME280;1095;50.992;6.798;2023-05-23T03:08:58;101069.34;;;15.05;95.80
2178;BME280;1095;50.992;6.798;2023-05-23T03:11:26;101074.78;;;15.03;95.70
2178;BME280;1095;50.992;6.798;2023-05-23T03:13:54;101064.44;;;15.02;95.93
2178;BME280;1095;50.992;6.798;2023-05-23T03:16:21;101072.16;;;15.03;95.71
2178;BME280;1095;50.992;6.798;2023-05-23T03:18:48;101068.41;;;14.98;95.69
2178;BME280;1095;50.992;6.798;2023-05-23T03:21:15;101077.28;;;14.97;95.94
2178;BME280;1095;50.992;6.798;2023-05-23T03:23:41;101079.50;;;14.85;96.41
2178;BME280;1095;50.992;6.798;2023-05-23T03:26:08;101076.09;;;14.76;97.23
2178;BME280;1095;50.992;6.798;2023-05-23T03:28:36;101079.75;;;14.67;98.04
2178;BME280;1095;50.992;6.798;2023-05-23T03:31:02;101085.31;;;14.72;97.98
2178;BME280;1095;50.992;6.798;2023-05-23T03:33:29;101078.75;;;14.68;98.20
2178;BME280;1095;50.992;6.798;2023-05-23T03:35:56;101086.66;;;14.68;98.44
2178;BME280;1095;50.992;6.798;2023-05-23T03:38:22;101090.94;;;14.69;98.21
2178;BME280;1095;50.992;6.798;2023-05-23T03:40:49;101085.66;;;14.69;97.83
2178;BME280;1095;50.992;6.798;2023-05-23T03:43:15;101090.75;;;14.71;97.81
2178;BME280;1095;50.992;6.798;2023-05-23T03:45:43;101090.41;;;14.74;97.62
2178;BME280;1095;50.992;6.798;2023-05-23T03:48:10;101076.13;;;14.68;97.70
2178;BME280;1095;50.992;6.798;2023-05-23T03:50:37;101084.66;;;14.70;97.55
2178;BME280;1095;50.992;6.798;2023-05-23T03:53:03;101083.84;;;14.70;97.66
2178;BME280;1095;50.992;6.798;2023-05-23T03:55:30;101080.94;;;14.65;97.44
2178;BME280;1095;50.992;6.798;2023-05-23T03:57:57;101083.56;;;14.65;97.10
2178;BME280;1095;50.992;6.798;2023-05-23T04:00:23;101084.84;;;14.69;96.96
2178;BME280;1095;50.992;6.798;2023-05-23T04:02:51;101087.31;;;14.70;96.50
2178;BME280;1095;50.992;6.798;2023-05-23T04:05:18;101081.72;;;14.65;96.34
2178;BME280;1095;50.992;6.798;2023-05-23T04:07:45;101091.28;;;14.66;96.20
2178;BME280;1095;50.992;6.798;2023-05-23T04:10:12;101093.22;;;14.72;96.33
2178;BME280;1095;50.992;6.798;2023-05-23T04:12:39;101084.00;;;14.68;96.34
2178;BME280;1095;50.992;6.798;2023-05-23T04:15:07;101091.91;;;14.68;96.59
2178;BME280;1095;50.992;6.798;2023-05-23T04:17:34;101102.63;;;14.67;96.91
2178;BME280;1095;50.992;6.798;2023-05-23T04:20:06;101096.09;;;14.63;97.13
2178;BME280;1095;50.992;6.798;2023-05-23T04:22:33;101101.19;;;14.64;97.26
2178;BME280;1095;50.992;6.798;2023-05-23T04:25:00;101105.16;;;14.60;97.33
2178;BME280;1095;50.992;6.798;2023-05-23T04:27:26;101101.69;;;14.59;97.58
2178;BME280;1095;50.992;6.798;2023-05-23T04:29:53;101109.25;;;14.63;97.23
2178;BME280;1095;50.992;6.798;2023-05-23T04:32:22;101118.31;;;14.60;97.23
2178;BME280;1095;50.992;6.798;2023-05-23T04:34:49;101119.47;;;14.57;97.50
2178;BME280;1095;50.992;6.798;2023-05-23T04:37:17;101113.38;;;14.57;97.35
2178;BME280;1095;50.992;6.798;2023-05-23T04:39:50;101107.78;;;14.60;97.19
2178;BME280;1095;50.992;6.798;2023-05-23T04:42:17;101119.97;;;14.61;97.18
2178;BME280;1095;50.992;6.798;2023-05-23T04:44:48;101118.97;;;14.62;97.20
2178;BME280;1095;50.992;6.798;2023-05-23T04:47:15;101120.63;;;14.55;97.09
2178;BME280;1095;50.992;6.798;2023-05-23T04:49:42;101118.00;;;14.55;97.44
2178;BME280;1095;50.992;6.798;2023-05-23T04:52:12;101118.16;;;14.62;97.47
2178;BME280;1095;50.992;6.798;2023-05-23T04:54:40;101126.38;;;14.58;97.46
2178;BME280;1095;50.992;6.798;2023-05-23T04:57:09;101122.94;;;14.58;97.26
2178;BME280;1095;50.992;6.798;2023-05-23T04:59:36;101127.03;;;14.60;97.07
2178;BME280;1095;50.992;6.798;2023-05-23T05:02:03;101133.41;;;14.66;97.00
2178;BME280;1095;50.992;6.798;2023-05-23T05:04:30;101134.59;;;14.64;97.28
2178;BME280;1095;50.992;6.798;2023-05-23T05:06:57;101137.41;;;14.62;97.00
2178;BME280;1095;50.992;6.798;2023-05-23T05:09:23;101129.84;;;14.59;96.90
2178;BME280;1095;50.992;6.798;2023-05-23T05:11:51;101142.84;;;14.60;97.02
2178;BME280;1095;50.992;6.798;2023-05-23T05:14:18;101132.31;;;14.60;97.27
2178;BME280;1095;50.992;6.798;2023-05-23T05:16:44;101152.84;;;14.65;97.17
2178;BME280;1095;50.992;6.798;2023-05-23T05:19:13;101137.34;;;14.70;96.90
2178;BME280;1095;50.992;6.798;2023-05-23T05:21:39;101139.31;;;14.76;96.62
2178;BME280;1095;50.992;6.798;2023-05-23T05:24:06;101145.22;;;14.78;96.47
2178;BME280;1095;50.992;6.798;2023-05-23T05:26:34;101148.34;;;14.82;96.66
2178;BME280;1095;50.992;6.798;2023-05-23T05:29:02;101155.78;;;14.70;96.72
2178;BME280;1095;50.992;6.798;2023-05-23T05:31:28;101143.31;;;14.64;97.04
2178;BME280;1095;50.992;6.798;2023-05-23T05:33:55;101152.56;;;14.60;97.42
2178;BME280;1095;50.992;6.798;2023-05-23T05:36:22;101154.84;;;14.63;97.70
2178;BME280;1095;50.992;6.798;2023-05-23T05:38:50;101157.75;;;14.68;97.86
2178;BME280;1095;50.992;6.798;2023-05-23T05:41:17;101154.53;;;14.58;97.80
2178;BME280;1095;50.992;6.798;2023-05-23T05:43:44;101164.91;;;14.59;97.93
2178;BME280;1095;50.992;6.798;2023-05-23T05:46:12;101165.38;;;14.63;98.20
2178;BME280;1095;50.992;6.798;2023-05-23T05:48:38;101164.56;;;14.63;98.22
2178;BME280;1095;50.992;6.798;2023-05-23T05:51:05;101169.00;;;14.62;98.37
2178;BME280;1095;50.992;6.798;2023-05-23T05:53:31;101171.31;;;14.57;98.31
2178;BME280;1095;50.992;6.798;2023-05-23T05:55:58;101169.50;;;14.57;98.43
2178;BME280;1095;50.992;6.798;2023-05-23T05:58:25;101174.28;;;14.62;98.57
2178;BME280;1095;50.992;6.798;2023-05-23T06:00:51;101172.28;;;14.64;98.46
2178;BME280;1095;50.992;6.798;2023-05-23T06:03:20;101181.44;;;14.76;98.45
2178;BME280;1095;50.992;6.798;2023-05-23T06:05:48;101179.66;;;14.69;98.23
2178;BME280;1095;50.992;6.798;2023-05-23T06:08:14;101179.31;;;14.72;98.23
2178;BME280;1095;50.992;6.798;2023-05-23T06:10:41;101186.47;;;14.63;98.22
2178;BME280;1095;50.992;6.798;2023-05-23T06:13:07;101183.13;;;14.69;97.93
2178;BME280;1095;50.992;6.798;2023-05-23T06:15:34;101174.53;;;14.75;97.49
2178;BME280;1095;50.992;6.798;2023-05-23T06:18:00;101180.78;;;14.82;97.40
2178;BME280;1095;50.992;6.798;2023-05-23T06:20:28;101183.09;;;14.77;97.27
2178;BME280;1095;50.992;6.798;2023-05-23T06:22:55;101187.34;;;14.86;97.19
2178;BME280;1095;50.992;6.798;2023-05-23T06:25:22;101181.41;;;14.92;97.22
2178;BME280;1095;50.992;6.798;2023-05-23T06:27:48;101185.38;;;14.88;96.92
2178;BME280;1095;50.992;6.798;2023-05-23T06:30:15;101186.03;;;14.90;96.74
2178;BME280;1095;50.992;6.798;2023-05-23T06:32:42;101174.53;;;14.83;96.77
2178;BME280;1095;50.992;6.798;2023-05-23T06:35:08;101189.63;;;14.98;96.78
2178;BME280;1095;50.992;6.798;2023-05-23T06:37:36;101183.66;;;15.04;96.51
2178;BME280;1095;50.992;6.798;2023-05-23T06:40:08;101189.63;;;14.98;96.59
2178;BME280;1095;50.992;6.798;2023-05-23T06:42:35;101198.69;;;14.95;96.77
2178;BME280;1095;50.992;6.798;2023-05-23T06:45:01;101194.72;;;14.99;96.83
2178;BME280;1095;50.992;6.798;2023-05-23T06:47:28;101199.16;;;15.07;96.58
2178;BME280;1095;50.992;6.798;2023-05-23T06:50:04;101194.81;;;15.14;95.72
2178;BME280;1095;50.992;6.798;2023-05-23T06:52:34;101196.28;;;15.16;94.80
2178;BME280;1095;50.992;6.798;2023-05-23T06:55:26;101196.41;;;15.23;94.62
2178;BME280;1095;50.992;6.798;2023-05-23T06:58:10;101195.41;;;15.24;94.21
2178;BME280;1095;50.992;6.798;2023-05-23T07:00:39;101207.47;;;15.18;94.74
2178;BME280;1095;50.992;6.798;2023-05-23T07:03:05;101197.56;;;15.20;95.08
2178;BME280;1095;50.992;6.798;2023-05-23T07:05:32;101205.97;;;15.24;95.12
2178;BME280;1095;50.992;6.798;2023-05-23T07:08:00;101213.69;;;15.25;95.21
2178;BME280;1095;50.992;6.798;2023-05-23T07:10:28;101218.47;;;15.30;95.02
2178;BME280;1095;50.992;6.798;2023-05-23T07:12:58;101210.63;;;15.14;94.80
2178;BME280;1095;50.992;6.798;2023-05-23T07:15:25;101216.16;;;15.27;94.99
2178;BME280;1095;50.992;6.798;2023-05-23T07:17:52;101219.50;;;15.52;94.36
2178;BME280;1095;50.992;6.798;2023-05-23T07:20:18;101227.97;;;15.70;93.46
2178;BME280;1095;50.992;6.798;2023-05-23T07:22:45;101219.53;;;15.75;92.70
2178;BME280;1095;50.992;6.798;2023-05-23T07:25:11;101231.38;;;15.79;92.14
2178;BME280;1095;50.992;6.798;2023-05-23T07:27:39;101222.13;;;15.83;91.56
2178;BME280;1095;50.992;6.798;2023-05-23T07:30:07;101217.16;;;15.88;91.41
2178;BME280;1095;50.992;6.798;2023-05-23T07:32:34;101230.28;;;15.96;91.15
2178;BME280;1095;50.992;6.798;2023-05-23T07:35:01;101228.09;;;16.22;90.54
2178;BME280;1095;50.992;6.798;2023-05-23T07:37:27;101224.13;;;16.41;89.67
2178;BME280;1095;50.992;6.798;2023-05-23T07:39:54;101221.38;;;16.35;88.59
2178;BME280;1095;50.992;6.798;2023-05-23T07:42:21;101225.84;;;16.34;88.12
2178;BME280;1095;50.992;6.798;2023-05-23T07:44:49;101224.19;;;16.33;88.26
2178;BME280;1095;50.992;6.798;2023-05-23T07:47:15;101240.28;;;16.23;88.59
2178;BME280;1095;50.992;6.798;2023-05-23T07:49:42;101239.34;;;16.16;88.78
2178;BME280;1095;50.992;6.798;2023-05-23T07:52:09;101230.00;;;15.91;89.42
2178;BME280;1095;50.992;6.798;2023-05-23T07:54:35;101239.31;;;15.79;89.90
2178;BME280;1095;50.992;6.798;2023-05-23T07:57:02;101251.56;;;15.72;90.16
2178;BME280;1095;50.992;6.798;2023-05-23T07:59:31;101239.78;;;15.82;90.42
2178;BME280;1095;50.992;6.798;2023-05-23T08:01:59;101243.97;;;15.69;90.47
2178;BME280;1095;50.992;6.798;2023-05-23T08:04:25;101230.31;;;15.65;90.70
2178;BME280;1095;50.992;6.798;2023-05-23T08:06:52;101238.75;;;15.60;90.89
2178;BME280;1095;50.992;6.798;2023-05-23T08:09:19;101239.34;;;15.71;90.72
2178;BME280;1095;50.992;6.798;2023-05-23T08:11:46;101237.97;;;15.83;90.40
2178;BME280;1095;50.992;6.798;2023-05-23T08:14:12;101250.41;;;15.97;89.68
2178;BME280;1095;50.992;6.798;2023-05-23T08:16:39;101248.53;;;15.83;89.84
2178;BME280;1095;50.992;6.798;2023-05-23T08:19:07;101255.31;;;15.77;90.15
2178;BME280;1095;50.992;6.798;2023-05-23T08:21:34;101257.44;;;15.82;90.38
2178;BME280;1095;50.992;6.798;2023-05-23T08:24:01;101255.00;;;15.72;90.84
2178;BME280;1095;50.992;6.798;2023-05-23T08:26:28;101264.38;;;15.44;91.78
2178;BME280;1095;50.992;6.798;2023-05-23T08:28:59;101271.50;;;15.35;92.88
2178;BME280;1095;50.992;6.798;2023-05-23T08:31:26;101270.81;;;15.41;92.92
2178;BME280;1095;50.992;6.798;2023-05-23T08:33:53;101269.44;;;15.14;93.13
2178;BME280;1095;50.992;6.798;2023-05-23T08:36:21;101281.16;;;15.12;93.74
2178;BME280;1095;50.992;6.798;2023-05-23T08:38:48;101289.53;;;15.15;94.14
2178;BME280;1095;50.992;6.798;2023-05-23T08:41:18;101286.50;;;15.35;94.26
2178;BME280;1095;50.992;6.798;2023-05-23T08:43:45;101277.06;;;15.48;94.00
2178;BME280;1095;50.992;6.798;2023-05-23T08:46:13;101284.09;;;15.56;92.74
2178;BME280;1095;50.992;6.798;2023-05-23T08:48:41;101290.91;;;15.50;92.59
2178;BME280;1095;50.992;6.798;2023-05-23T08:51:08;101289.38;;;15.56;92.34
2178;BME280;1095;50.992;6.798;2023-05-23T08:53:37;101290.75;;;15.44;92.02
2178;BME280;1095;50.992;6.798;2023-05-23T08:56:07;101298.34;;;15.39;92.75
2178;BME280;1095;50.992;6.798;2023-05-23T08:58:35;101299.78;;;15.10;94.11
2178;BME280;1095;50.992;6.798;2023-05-23T09:01:03;101309.53;;;14.93;95.32
2178;BME280;1095;50.992;6.798;2023-05-23T09:03:30;101315.47;;;14.87;96.00
2178;BME280;1095;50.992;6.798;2023-05-23T09:05:57;101314.16;;;14.83;96.17
2178;BME280;1095;50.992;6.798;2023-05-23T09:08:24;101316.97;;;14.66;96.14
2178;BME280;1095;50.992;6.798;2023-05-23T09:10:53;101322.22;;;14.66;96.40
2178;BME280;1095;50.992;6.798;2023-05-23T09:13:20;101322.22;;;14.66;96.20
2178;BME280;1095;50.992;6.798;2023-05-23T09:16:05;101327.88;;;14.63;96.10
2178;BME280;1095;50.992;6.798;2023-05-23T09:18:34;101335.44;;;14.57;96.07
2178;BME280;1095;50.992;6.798;2023-05-23T09:21:02;101327.69;;;14.56;95.69
2178;BME280;1095;50.992;6.798;2023-05-23T09:23:29;101337.38;;;14.72;95.15
2178;BME280;1095;50.992;6.798;2023-05-23T09:26:01;101329.63;;;14.78;94.12
2178;BME280;1095;50.992;6.798;2023-05-23T09:28:29;101326.03;;;14.71;93.38
2178;BME280;1095;50.992;6.798;2023-05-23T09:30:58;101337.88;;;14.75;93.32
2178;BME280;1095;50.992;6.798;2023-05-23T09:33:34;101333.75;;;14.73;93.40
2178;BME280;1095;50.992;6.798;2023-05-23T09:36:02;101330.47;;;14.71;93.64
2178;BME280;1095;50.992;6.798;2023-05-23T09:38:29;101330.47;;;14.71;93.31
2178;BME280;1095;50.992;6.798;2023-05-23T09:40:57;101346.97;;;14.56;93.70
2178;BME280;1095;50.992;6.798;2023-05-23T09:43:27;101352.97;;;14.33;94.97
2178;BME280;1095;50.992;6.798;2023-05-23T09:45:54;101356.97;;;14.45;95.94
2178;BME280;1095;50.992;6.798;2023-05-23T09:48:27;101364.50;;;14.32;96.81
2178;BME280;1095;50.992;6.798;2023-05-23T09:50:55;101357.66;;;14.63;96.68
2178;BME280;1095;50.992;6.798;2023-05-23T09:53:21;101353.31;;;15.11;94.71
2178;BME280;1095;50.992;6.798;2023-05-23T09:55:50;101352.72;;;15.48;92.28
2178;BME280;1095;50.992;6.798;2023-05-23T09:58:18;101348.19;;;15.73;90.47
2178;BME280;1095;50.992;6.798;2023-05-23T10:00:47;101355.88;;;15.35;89.81
2178;BME280;1095;50.992;6.798;2023-05-23T10:03:16;101346.88;;;15.13;89.28
2178;BME280;1095;50.992;6.798;2023-05-23T10:05:43;101347.03;;;15.20;89.33
2178;BME280;1095;50.992;6.798;2023-05-23T10:08:13;101357.56;;;15.28;88.57
2178;BME280;1095;50.992;6.798;2023-05-23T10:13:42;101353.00;;;15.06;88.32
2178;BME280;1095;50.992;6.798;2023-05-23T10:16:14;101365.75;;;15.41;87.36
2178;BME280;1095;50.992;6.798;2023-05-23T10:18:44;101361.00;;;15.84;85.67
2178;BME280;1095;50.992;6.798;2023-05-23T10:21:17;101350.16;;;15.71;84.98
2178;BME280;1095;50.992;6.798;2023-05-23T10:23:45;101344.31;;;15.52;84.25
2178;BME280;1095;50.992;6.798;2023-05-23T10:26:14;101358.44;;;15.68;84.59
2178;BME280;1095;50.992;6.798;2023-05-23T10:28:41;101353.50;;;15.65;84.39
2178;BME280;1095;50.992;6.798;2023-05-23T10:31:08;101362.50;;;15.31;84.97
2178;BME280;1095;50.992;6.798;2023-05-23T10:33:41;101371.28;;;14.99;85.42
2178;BME280;1095;50.992;6.798;2023-05-23T10:36:13;101376.09;;;14.63;85.65
2178;BME280;1095;50.992;6.798;2023-05-23T10:38:48;101378.41;;;14.58;85.98
2178;BME280;1095;50.992;6.798;2023-05-23T10:41:22;101378.22;;;14.59;86.19
2178;BME280;1095;50.992;6.798;2023-05-23T10:43:55;101387.59;;;14.70;85.99
2178;BME280;1095;50.992;6.798;2023-05-23T10:46:22;101388.28;;;14.64;85.90
2178;BME280;1095;50.992;6.798;2023-05-23T10:48:54;101385.00;;;14.62;85.73
2178;BME280;1095;50.992;6.798;2023-05-23T10:51:22;101387.59;;;14.54;85.73
2178;BME280;1095;50.992;6.798;2023-05-23T10:53:53;101388.91;;;14.66;85.57
2178;BME280;1095;50.992;6.798;2023-05-23T10:56:21;101391.22;;;14.69;85.01
2178;BME280;1095;50.992;6.798;2023-05-23T10:58:51;101386.28;;;14.74;84.44
2178;BME280;1095;50.992;6.798;2023-05-23T11:01:19;101393.53;;;14.97;84.09
2178;BME280;1095;50.992;6.798;2023-05-23T11:03:50;101382.75;;;15.39;83.09
2178;BME280;1095;50.992;6.798;2023-05-23T11:06:29;101394.06;;;15.55;82.34
2178;BME280;1095;50.992;6.798;2023-05-23T11:09:04;101388.81;;;15.55;81.96
2178;BME280;1095;50.992;6.798;2023-05-23T11:11:51;101382.94;;;15.13;81.63
2178;BME280;1095;50.992;6.798;2023-05-23T11:14:18;101394.47;;;15.20;81.53
2178;BME280;1095;50.992;6.798;2023-05-23T11:16:45;101390.22;;;15.11;81.08
2178;BME280;1095;50.992;6.798;2023-05-23T11:19:24;101401.53;;;15.44;81.08
2178;BME280;1095;50.992;6.798;2023-05-23T11:21:55;101391.16;;;16.20;79.66
2178;BME280;1095;50.992;6.798;2023-05-23T11:24:22;101390.31;;;16.74;76.96
2178;BME280;1095;50.992;6.798;2023-05-23T11:26:53;101381.75;;;17.24;75.74
2178;BME280;1095;50.992;6.798;2023-05-23T11:29:25;101379.72;;;16.97;74.52
2178;BME280;1095;50.992;6.798;2023-05-23T11:31:51;101381.03;;;16.78;75.12
2178;BME280;1095;50.992;6.798;2023-05-23T11:34:18;101383.53;;;17.09;74.67
2178;BME280;1095;50.992;6.798;2023-05-23T11:36:46;101362.59;;;17.22;72.61
2178;BME280;1095;50.992;6.798;2023-05-23T11:39:14;101359.84;;;17.30;71.43
2178;BME280;1095;50.992;6.798;2023-05-23T11:41:41;101363.84;;;17.85;70.76
2178;BME280;1095;50.992;6.798;2023-05-23T11:44:11;101359.19;;;17.87;69.80
2178;BME280;1095;50.992;6.798;2023-05-23T11:46:38;101357.03;;;17.76;69.65
2178;BME280;1095;50.992;6.798;2023-05-23T11:49:09;101340.59;;;17.80;69.17
2178;BME280;1095;50.992;6.798;2023-05-23T11:51:36;101356.13;;;17.69;69.21
2178;BME280;1095;50.992;6.798;2023-05-23T11:54:03;101349.16;;;17.53;69.43
2178;BME280;1095;50.992;6.798;2023-05-23T11:56:38;101350.34;;;17.50;69.06
2178;BME280;1095;50.992;6.798;2023-05-23T11:59:04;101346.69;;;17.51;69.48
2178;BME280;1095;50.992;6.798;2023-05-23T12:01:31;101349.44;;;17.73;68.91
2178;BME280;1095;50.992;6.798;2023-05-23T12:03:58;101351.75;;;17.97;68.99
2178;BME280;1095;50.992;6.798;2023-05-23T12:06:25;101347.00;;;17.27;68.33
2178;BME280;1095;50.992;6.798;2023-05-23T12:08:52;101357.50;;;17.35;69.62
2178;BME280;1095;50.992;6.798;2023-05-23T12:11:19;101352.44;;;17.11;70.25
2178;BME280;1095;50.992;6.798;2023-05-23T12:13:48;101362.31;;;17.32;70.26
2178;BME280;1095;50.992;6.798;2023-05-23T12:16:14;101353.94;;;17.43;69.64
2178;BME280;1095;50.992;6.798;2023-05-23T12:18:41;101366.97;;;17.44;69.60
2178;BME280;1095;50.992;6.798;2023-05-23T12:21:08;101351.81;;;17.82;69.42
2178;BME280;1095;50.992;6.798;2023-05-23T12:23:35;101350.63;;;17.11;69.23
2178;BME280;1095;50.992;6.798;2023-05-23T12:26:04;101351.16;;;16.92;69.56
2178;BME280;1095;50.992;6.798;2023-05-23T12:28:36;101362.41;;;17.38;69.06
2178;BME280;1095;50.992;6.798;2023-05-23T12:31:16;101354.56;;;17.01;68.40
2178;BME280;1095;50.992;6.798;2023-05-23T12:33:43;101373.00;;;17.38;69.04
2178;BME280;1095;50.992;6.798;2023-05-23T12:36:12;101361.31;;;17.18;68.96
2178;BME280;1095;50.992;6.798;2023-05-23T12:38:39;101361.31;;;17.18;69.17
2178;BME280;1095;50.992;6.798;2023-05-23T12:41:10;101362.41;;;17.38;68.87
2178;BME280;1095;50.992;6.798;2023-05-23T12:43:38;101374.91;;;17.30;69.09
2178;BME280;1095;50.992;6.798;2023-05-23T12:46:05;101362.91;;;17.04;68.58
2178;BME280;1095;50.992;6.798;2023-05-23T12:48:33;101366.50;;;17.26;69.05
2178;BME280;1095;50.992;6.798;2023-05-23T12:51:00;101365.84;;;17.53;68.80
2178;BME280;1095;50.992;6.798;2023-05-23T12:53:28;101353.03;;;17.36;68.27
2178;BME280;1095;50.992;6.798;2023-05-23T12:55:54;101356.38;;;17.00;67.30
2178;BME280;1095;50.992;6.798;2023-05-23T12:58:21;101346.69;;;17.07;66.70
2178;BME280;1095;50.992;6.798;2023-05-23T13:00:48;101344.13;;;17.58;66.32
2178;BME280;1095;50.992;6.798;2023-05-23T13:03:14;101333.47;;;18.02;64.02
2178;BME280;1095;50.992;6.798;2023-05-23T13:05:42;101325.94;;;18.20;63.23
2178;BME280;1095;50.992;6.798;2023-05-23T13:08:09;101344.88;;;17.81;63.78
2178;BME280;1095;50.992;6.798;2023-05-23T13:10:37;101331.75;;;17.73;62.98
2178;BME280;1095;50.992;6.798;2023-05-23T13:13:03;101340.16;;;17.47;62.96
2178;BME280;1095;50.992;6.798;2023-05-23T13:15:30;101336.88;;;17.16;63.45
2178;BME280;1095;50.992;6.798;2023-05-23T13:17:57;101351.00;;;17.23;63.89